sensor_id;sensor_type;location;lat;lon;timestamp;P1;durP1;ratioP1;P2;durP2;ratioP2
23676;SDS011;31493;49.058;12.190;2024-02-14T00:01:36;15.23;;;6.55;;
23676;SDS011;31493;49.058;12.190;2024-02-14T00:04:03;13.00;;;6.35;;
23676;SDS011;31493;49.058;12.190;2024-02-14T00:06:34;13.80;;;6.72;;
23676;SDS011;31493;49.058;12.190;2024-02-14T00:11:30;13.13;;;6.13;;
23676;SDS011;31493;49.058;12.190;2024-02-14T00:13:57;15.48;;;6.65;;
23676;SDS011;31493;49.058;12.190;2024-02-14T00:16:27;11.52;;;5.82;;
23676;SDS011;31493;49.058;12.190;2024-02-14T00:18:55;9.35;;;4.90;;
23676;SDS011;31493;49.058;12.190;2024-02-14T00:21:23;11.25;;;4.93;;
23676;SDS011;31493;49.058;12.190;2024-02-14T00:23:50;12.35;;;4.93;;
23676;SDS011;31493;49.058;12.190;2024-02-14T00:26:17;11.57;;;5.70;;
23676;SDS011;31493;49.058;12.190;2024-02-14T00:28:46;8.70;;;5.25;;
23676;SDS011;31493;49.058;12.190;2024-02-14T00:31:13;13.48;;;6.45;;
23676;SDS011;31493;49.058;12.190;2024-02-14T00:33:40;15.95;;;6.15;;
23676;SDS011;31493;49.058;12.190;2024-02-14T00:36:07;12.38;;;5.78;;
23676;SDS011;31493;49.058;12.190;2024-02-14T00:38:34;13.68;;;6.57;;
23676;SDS011;31493;49.058;12.190;2024-02-14T00:41:01;11.73;;;6.20;;
23676;SDS011;31493;49.058;12.190;2024-02-14T00:43:28;11.25;;;6.35;;
23676;SDS011;31493;49.058;12.190;2024-02-14T00:45:57;9.30;;;6.20;;
23676;SDS011;31493;49.058;12.190;2024-02-14T00:48:24;9.98;;;6.47;;
23676;SDS011;31493;49.058;12.190;2024-02-14T00:50:51;11.30;;;6.25;;
23676;SDS011;31493;49.058;12.190;2024-02-14T00:53:18;15.70;;;7.20;;
23676;SDS011;31493;49.058;12.190;2024-02-14T00:55:46;15.73;;;6.93;;
23676;SDS011;31493;49.058;12.190;2024-02-14T00:58:13;9.60;;;6.18;;
23676;SDS011;31493;49.058;12.190;2024-02-14T01:00:40;13.30;;;6.75;;
23676;SDS011;31493;49.058;12.190;2024-02-14T01:03:08;15.07;;;6.80;;
23676;SDS011;31493;49.058;12.190;2024-02-14T01:05:38;12.50;;;6.55;;
23676;SDS011;31493;49.058;12.190;2024-02-14T01:08:05;13.68;;;6.72;;
23676;SDS011;31493;49.058;12.190;2024-02-14T01:10:33;11.52;;;6.38;;
23676;SDS011;31493;49.058;12.190;2024-02-14T01:13:00;13.20;;;6.10;;
23676;SDS011;31493;49.058;12.190;2024-02-14T01:15:27;13.55;;;6.55;;
23676;SDS011;31493;49.058;12.190;2024-02-14T01:17:54;12.70;;;6.22;;
23676;SDS011;31493;49.058;12.190;2024-02-14T01:20:22;17.17;;;6.53;;
23676;SDS011;31493;49.058;12.190;2024-02-14T01:22:50;14.27;;;7.13;;
23676;SDS011;31493;49.058;12.190;2024-02-14T01:25:17;15.02;;;6.75;;
23676;SDS011;31493;49.058;12.190;2024-02-14T01:27:44;11.88;;;6.50;;
23676;SDS011;31493;49.058;12.190;2024-02-14T01:30:11;10.63;;;6.07;;
23676;SDS011;31493;49.058;12.190;2024-02-14T01:32:38;13.48;;;7.57;;
23676;SDS011;31493;49.058;12.190;2024-02-14T01:35:05;15.13;;;6.90;;
23676;SDS011;31493;49.058;12.190;2024-02-14T01:37:36;13.20;;;6.65;;
23676;SDS011;31493;49.058;12.190;2024-02-14T01:40:04;16.50;;;7.38;;
23676;SDS011;31493;49.058;12.190;2024-02-14T01:42:32;13.18;;;6.88;;
23676;SDS011;31493;49.058;12.190;2024-02-14T01:44:59;14.35;;;7.35;;
23676;SDS011;31493;49.058;12.190;2024-02-14T01:47:28;12.45;;;7.38;;
23676;SDS011;31493;49.058;12.190;2024-02-14T01:49:57;13.05;;;7.05;;
23676;SDS011;31493;49.058;12.190;2024-02-14T01:52:25;12.32;;;7.50;;
23676;SDS011;31493;49.058;12.190;2024-02-14T01:54:53;16.42;;;7.60;;
23676;SDS011;31493;49.058;12.190;2024-02-14T01:57:21;13.23;;;6.97;;
23676;SDS011;31493;49.058;12.190;2024-02-14T01:59:49;16.13;;;7.03;;
23676;SDS011;31493;49.058;12.190;2024-02-14T02:02:19;10.93;;;6.55;;
23676;SDS011;31493;49.058;12.190;2024-02-14T02:04:46;13.48;;;6.78;;
23676;SDS011;31493;49.058;12.190;2024-02-14T02:07:13;13.60;;;6.78;;
23676;SDS011;31493;49.058;12.190;2024-02-14T02:09:40;12.13;;;6.03;;
23676;SDS011;31493;49.058;12.190;2024-02-14T02:12:08;14.70;;;6.63;;
23676;SDS011;31493;49.058;12.190;2024-02-14T02:14:35;12.70;;;6.30;;
23676;SDS011;31493;49.058;12.190;2024-02-14T02:17:03;13.95;;;6.35;;
23676;SDS011;31493;49.058;12.190;2024-02-14T02:19:33;13.35;;;6.13;;
23676;SDS011;31493;49.058;12.190;2024-02-14T02:22:01;13.40;;;6.75;;
23676;SDS011;31493;49.058;12.190;2024-02-14T02:24:31;10.07;;;6.65;;
23676;SDS011;31493;49.058;12.190;2024-02-14T02:26:58;12.65;;;6.90;;
23676;SDS011;31493;49.058;12.190;2024-02-14T02:29:25;13.88;;;7.18;;
23676;SDS011;31493;49.058;12.190;2024-02-14T02:31:52;14.63;;;7.70;;
23676;SDS011;31493;49.058;12.190;2024-02-14T02:34:19;12.63;;;7.53;;
23676;SDS011;31493;49.058;12.190;2024-02-14T02:36:46;10.23;;;7.13;;
23676;SDS011;31493;49.058;12.190;2024-02-14T02:39:16;13.65;;;7.28;;
23676;SDS011;31493;49.058;12.190;2024-02-14T02:41:44;11.82;;;6.82;;
23676;SDS011;31493;49.058;12.190;2024-02-14T02:44:14;12.38;;;7.45;;
23676;SDS011;31493;49.058;12.190;2024-02-14T02:46:41;17.15;;;7.57;;
23676;SDS011;31493;49.058;12.190;2024-02-14T02:49:09;11.25;;;7.43;;
23676;SDS011;31493;49.058;12.190;2024-02-14T02:51:39;9.13;;;6.88;;
23676;SDS011;31493;49.058;12.190;2024-02-14T02:54:06;14.50;;;7.35;;
23676;SDS011;31493;49.058;12.190;2024-02-14T02:56:34;14.85;;;7.57;;
23676;SDS011;31493;49.058;12.190;2024-02-14T02:59:02;15.38;;;8.43;;
23676;SDS011;31493;49.058;12.190;2024-02-14T03:01:34;12.88;;;7.40;;
23676;SDS011;31493;49.058;12.190;2024-02-14T03:04:02;15.73;;;8.30;;
23676;SDS011;31493;49.058;12.190;2024-02-14T03:06:29;13.73;;;8.10;;
23676;SDS011;31493;49.058;12.190;2024-02-14T03:08:56;18.25;;;8.55;;
23676;SDS011;31493;49.058;12.190;2024-02-14T03:11:23;13.80;;;7.75;;
23676;SDS011;31493;49.058;12.190;2024-02-14T03:13:52;13.10;;;8.38;;
23676;SDS011;31493;49.058;12.190;2024-02-14T03:16:20;14.13;;;7.97;;
23676;SDS011;31493;49.058;12.190;2024-02-14T03:18:49;16.63;;;8.55;;
23676;SDS011;31493;49.058;12.190;2024-02-14T03:21:19;14.40;;;9.00;;
23676;SDS011;31493;49.058;12.190;2024-02-14T03:23:46;11.80;;;8.43;;
23676;SDS011;31493;49.058;12.190;2024-02-14T03:26:13;16.08;;;8.68;;
23676;SDS011;31493;49.058;12.190;2024-02-14T03:28:40;15.23;;;9.20;;
23676;SDS011;31493;49.058;12.190;2024-02-14T03:31:07;17.75;;;8.68;;
23676;SDS011;31493;49.058;12.190;2024-02-14T03:33:41;15.80;;;9.13;;
23676;SDS011;31493;49.058;12.190;2024-02-14T03:36:08;14.02;;;9.20;;
23676;SDS011;31493;49.058;12.190;2024-02-14T03:38:36;15.20;;;9.05;;
23676;SDS011;31493;49.058;12.190;2024-02-14T03:41:05;16.23;;;8.80;;
23676;SDS011;31493;49.058;12.190;2024-02-14T03:43:33;14.77;;;8.80;;
23676;SDS011;31493;49.058;12.190;2024-02-14T03:46:00;12.63;;;9.07;;
23676;SDS011;31493;49.058;12.190;2024-02-14T03:48:27;17.80;;;9.35;;
23676;SDS011;31493;49.058;12.190;2024-02-14T03:50:55;15.10;;;8.95;;
23676;SDS011;31493;49.058;12.190;2024-02-14T03:53:22;15.23;;;8.65;;
23676;SDS011;31493;49.058;12.190;2024-02-14T03:55:49;22.70;;;9.73;;
23676;SDS011;31493;49.058;12.190;2024-02-14T03:58:18;21.45;;;9.35;;
23676;SDS011;31493;49.058;12.190;2024-02-14T04:00:49;13.90;;;8.88;;
23676;SDS011;31493;49.058;12.190;2024-02-14T04:03:17;18.00;;;9.63;;
23676;SDS011;31493;49.058;12.190;2024-02-14T04:05:45;15.15;;;9.35;;
23676;SDS011;31493;49.058;12.190;2024-02-14T04:08:14;13.02;;;9.38;;
23676;SDS011;31493;49.058;12.190;2024-02-14T04:10:41;15.70;;;9.68;;
23676;SDS011;31493;49.058;12.190;2024-02-14T04:13:09;14.00;;;8.85;;
23676;SDS011;31493;49.058;12.190;2024-02-14T04:15:36;15.73;;;9.63;;
23676;SDS011;31493;49.058;12.190;2024-02-14T04:18:03;15.07;;;9.45;;
23676;SDS011;31493;49.058;12.190;2024-02-14T04:20:31;16.60;;;9.23;;
23676;SDS011;31493;49.058;12.190;2024-02-14T04:22:58;18.48;;;10.25;;
23676;SDS011;31493;49.058;12.190;2024-02-14T04:25:27;14.30;;;9.70;;
23676;SDS011;31493;49.058;12.190;2024-02-14T04:27:54;15.05;;;9.05;;
23676;SDS011;31493;49.058;12.190;2024-02-14T04:30:21;12.32;;;8.93;;
23676;SDS011;31493;49.058;12.190;2024-02-14T04:32:49;16.75;;;10.23;;
23676;SDS011;31493;49.058;12.190;2024-02-14T04:35:17;15.77;;;10.00;;
23676;SDS011;31493;49.058;12.190;2024-02-14T04:37:44;16.00;;;9.50;;
23676;SDS011;31493;49.058;12.190;2024-02-14T04:40:13;13.18;;;10.00;;
23676;SDS011;31493;49.058;12.190;2024-02-14T04:42:42;16.83;;;9.57;;
23676;SDS011;31493;49.058;12.190;2024-02-14T04:45:09;13.30;;;9.50;;
23676;SDS011;31493;49.058;12.190;2024-02-14T04:47:36;13.05;;;8.85;;
23676;SDS011;31493;49.058;12.190;2024-02-14T04:50:03;14.80;;;8.75;;
23676;SDS011;31493;49.058;12.190;2024-02-14T04:52:31;17.50;;;9.52;;
23676;SDS011;31493;49.058;12.190;2024-02-14T04:54:58;14.20;;;9.15;;
23676;SDS011;31493;49.058;12.190;2024-02-14T04:57:25;17.60;;;8.85;;
23676;SDS011;31493;49.058;12.190;2024-02-14T04:59:53;14.95;;;9.32;;
23676;SDS011;31493;49.058;12.190;2024-02-14T05:02:20;12.07;;;9.27;;
23676;SDS011;31493;49.058;12.190;2024-02-14T05:04:47;14.65;;;10.05;;
23676;SDS011;31493;49.058;12.190;2024-02-14T05:07:14;16.52;;;9.77;;
23676;SDS011;31493;49.058;12.190;2024-02-14T05:09:42;20.10;;;10.30;;
23676;SDS011;31493;49.058;12.190;2024-02-14T05:12:10;17.48;;;9.55;;
23676;SDS011;31493;49.058;12.190;2024-02-14T05:14:37;16.75;;;9.35;;
23676;SDS011;31493;49.058;12.190;2024-02-14T05:19:34;12.27;;;9.00;;
23676;SDS011;31493;49.058;12.190;2024-02-14T05:22:01;16.92;;;9.45;;
23676;SDS011;31493;49.058;12.190;2024-02-14T05:24:28;15.85;;;10.43;;
23676;SDS011;31493;49.058;12.190;2024-02-14T05:26:56;14.32;;;10.07;;
23676;SDS011;31493;49.058;12.190;2024-02-14T05:29:24;14.77;;;8.77;;
23676;SDS011;31493;49.058;12.190;2024-02-14T05:31:51;14.43;;;9.98;;
23676;SDS011;31493;49.058;12.190;2024-02-14T05:34:22;13.40;;;9.18;;
23676;SDS011;31493;49.058;12.190;2024-02-14T05:36:49;19.70;;;10.48;;
23676;SDS011;31493;49.058;12.190;2024-02-14T05:39:17;16.23;;;8.52;;
23676;SDS011;31493;49.058;12.190;2024-02-14T05:41:44;14.38;;;8.10;;
23676;SDS011;31493;49.058;12.190;2024-02-14T05:44:11;13.77;;;8.65;;
23676;SDS011;31493;49.058;12.190;2024-02-14T05:46:38;14.70;;;10.02;;
23676;SDS011;31493;49.058;12.190;2024-02-14T05:49:06;19.65;;;10.73;;
23676;SDS011;31493;49.058;12.190;2024-02-14T05:51:35;17.83;;;10.83;;
23676;SDS011;31493;49.058;12.190;2024-02-14T05:54:02;17.88;;;10.00;;
23676;SDS011;31493;49.058;12.190;2024-02-14T05:56:29;15.77;;;10.73;;
23676;SDS011;31493;49.058;12.190;2024-02-14T05:58:56;12.95;;;9.35;;
23676;SDS011;31493;49.058;12.190;2024-02-14T06:01:23;15.95;;;10.40;;
23676;SDS011;31493;49.058;12.190;2024-02-14T06:03:50;14.70;;;9.73;;
23676;SDS011;31493;49.058;12.190;2024-02-14T06:06:17;15.70;;;9.25;;
23676;SDS011;31493;49.058;12.190;2024-02-14T06:08:46;18.00;;;10.50;;
23676;SDS011;31493;49.058;12.190;2024-02-14T06:11:13;29.10;;;15.60;;
23676;SDS011;31493;49.058;12.190;2024-02-14T06:13:41;16.60;;;9.25;;
23676;SDS011;31493;49.058;12.190;2024-02-14T06:16:08;19.88;;;10.63;;
23676;SDS011;31493;49.058;12.190;2024-02-14T06:18:37;19.92;;;13.15;;
23676;SDS011;31493;49.058;12.190;2024-02-14T06:21:05;14.18;;;9.05;;
23676;SDS011;31493;49.058;12.190;2024-02-14T06:23:32;13.95;;;9.50;;
23676;SDS011;31493;49.058;12.190;2024-02-14T06:26:00;15.77;;;9.02;;
23676;SDS011;31493;49.058;12.190;2024-02-14T06:28:29;16.90;;;10.75;;
23676;SDS011;31493;49.058;12.190;2024-02-14T06:30:56;17.75;;;10.00;;
23676;SDS011;31493;49.058;12.190;2024-02-14T06:33:23;15.20;;;9.55;;
23676;SDS011;31493;49.058;12.190;2024-02-14T06:35:49;19.52;;;9.13;;
23676;SDS011;31493;49.058;12.190;2024-02-14T06:38:16;16.02;;;9.05;;
23676;SDS011;31493;49.058;12.190;2024-02-14T06:40:43;15.63;;;8.23;;
23676;SDS011;31493;49.058;12.190;2024-02-14T06:43:11;14.60;;;8.85;;
23676;SDS011;31493;49.058;12.190;2024-02-14T06:45:39;13.10;;;6.72;;
23676;SDS011;31493;49.058;12.190;2024-02-14T06:48:07;12.13;;;8.57;;
23676;SDS011;31493;49.058;12.190;2024-02-14T06:50:34;15.25;;;8.73;;
23676;SDS011;31493;49.058;12.190;2024-02-14T06:53:01;12.65;;;8.15;;
23676;SDS011;31493;49.058;12.190;2024-02-14T06:55:29;12.55;;;8.35;;
23676;SDS011;31493;49.058;12.190;2024-02-14T06:57:57;13.07;;;7.80;;
23676;SDS011;31493;49.058;12.190;2024-02-14T07:00:25;12.13;;;7.22;;
23676;SDS011;31493;49.058;12.190;2024-02-14T07:02:53;13.77;;;6.53;;
23676;SDS011;31493;49.058;12.190;2024-02-14T07:05:20;11.57;;;6.85;;
23676;SDS011;31493;49.058;12.190;2024-02-14T07:07:47;13.52;;;7.18;;
23676;SDS011;31493;49.058;12.190;2024-02-14T07:10:15;10.55;;;6.15;;
23676;SDS011;31493;49.058;12.190;2024-02-14T07:12:42;16.02;;;7.55;;
23676;SDS011;31493;49.058;12.190;2024-02-14T07:15:09;14.38;;;7.05;;
23676;SDS011;31493;49.058;12.190;2024-02-14T07:17:38;12.13;;;6.50;;
23676;SDS011;31493;49.058;12.190;2024-02-14T07:20:05;9.27;;;6.32;;
23676;SDS011;31493;49.058;12.190;2024-02-14T07:22:34;9.88;;;5.35;;
23676;SDS011;31493;49.058;12.190;2024-02-14T07:25:01;10.52;;;6.50;;
23676;SDS011;31493;49.058;12.190;2024-02-14T07:27:30;10.77;;;6.53;;
23676;SDS011;31493;49.058;12.190;2024-02-14T07:29:57;11.80;;;6.97;;
23676;SDS011;31493;49.058;12.190;2024-02-14T07:32:24;11.95;;;6.07;;
23676;SDS011;31493;49.058;12.190;2024-02-14T07:34:54;11.85;;;6.93;;
23676;SDS011;31493;49.058;12.190;2024-02-14T07:37:21;12.00;;;5.75;;
23676;SDS011;31493;49.058;12.190;2024-02-14T07:39:48;8.93;;;5.20;;
23676;SDS011;31493;49.058;12.190;2024-02-14T07:42:15;12.30;;;5.72;;
23676;SDS011;31493;49.058;12.190;2024-02-14T07:44:42;10.40;;;6.00;;
23676;SDS011;31493;49.058;12.190;2024-02-14T07:47:09;10.98;;;5.90;;
23676;SDS011;31493;49.058;12.190;2024-02-14T07:49:36;10.02;;;6.05;;
23676;SDS011;31493;49.058;12.190;2024-02-14T07:52:05;9.30;;;6.10;;
23676;SDS011;31493;49.058;12.190;2024-02-14T07:54:32;16.70;;;6.88;;
23676;SDS011;31493;49.058;12.190;2024-02-14T07:56:59;11.95;;;6.35;;
23676;SDS011;31493;49.058;12.190;2024-02-14T07:59:26;12.93;;;6.35;;
23676;SDS011;31493;49.058;12.190;2024-02-14T08:01:54;10.90;;;6.22;;
23676;SDS011;31493;49.058;12.190;2024-02-14T08:04:22;9.33;;;6.40;;
23676;SDS011;31493;49.058;12.190;2024-02-14T08:06:49;11.10;;;7.15;;
23676;SDS011;31493;49.058;12.190;2024-02-14T08:09:17;10.98;;;6.68;;
23676;SDS011;31493;49.058;12.190;2024-02-14T08:11:44;10.98;;;6.25;;
23676;SDS011;31493;49.058;12.190;2024-02-14T08:14:11;7.70;;;5.82;;
23676;SDS011;31493;49.058;12.190;2024-02-14T08:16:39;11.07;;;6.30;;
23676;SDS011;31493;49.058;12.190;2024-02-14T08:19:06;11.23;;;5.82;;
23676;SDS011;31493;49.058;12.190;2024-02-14T08:21:33;10.85;;;6.22;;
23676;SDS011;31493;49.058;12.190;2024-02-14T08:24:00;14.13;;;6.65;;
23676;SDS011;31493;49.058;12.190;2024-02-14T08:26:28;12.90;;;7.35;;
23676;SDS011;31493;49.058;12.190;2024-02-14T08:28:57;10.27;;;6.43;;
23676;SDS011;31493;49.058;12.190;2024-02-14T08:31:25;14.80;;;6.47;;
23676;SDS011;31493;49.058;12.190;2024-02-14T08:33:52;12.65;;;6.55;;
23676;SDS011;31493;49.058;12.190;2024-02-14T08:36:19;10.80;;;6.65;;
23676;SDS011;31493;49.058;12.190;2024-02-14T08:38:46;10.75;;;6.25;;
23676;SDS011;31493;49.058;12.190;2024-02-14T08:41:14;12.25;;;6.38;;
23676;SDS011;31493;49.058;12.190;2024-02-14T08:43:42;8.82;;;5.93;;
23676;SDS011;31493;49.058;12.190;2024-02-14T08:46:09;12.27;;;6.50;;
23676;SDS011;31493;49.058;12.190;2024-02-14T08:48:37;12.50;;;6.63;;
23676;SDS011;31493;49.058;12.190;2024-02-14T08:51:07;9.32;;;6.60;;
23676;SDS011;31493;49.058;12.190;2024-02-14T08:53:34;10.27;;;5.68;;
23676;SDS011;31493;49.058;12.190;2024-02-14T08:56:02;11.07;;;5.85;;
23676;SDS011;31493;49.058;12.190;2024-02-14T08:58:29;9.15;;;5.53;;
23676;SDS011;31493;49.058;12.190;2024-02-14T09:00:58;9.25;;;5.93;;
23676;SDS011;31493;49.058;12.190;2024-02-14T09:03:25;9.13;;;4.80;;
23676;SDS011;31493;49.058;12.190;2024-02-14T09:05:52;10.88;;;5.45;;
23676;SDS011;31493;49.058;12.190;2024-02-14T09:08:19;9.77;;;5.63;;
23676;SDS011;31493;49.058;12.190;2024-02-14T09:10:47;10.45;;;5.70;;
23676;SDS011;31493;49.058;12.190;2024-02-14T09:13:15;11.00;;;5.13;;
23676;SDS011;31493;49.058;12.190;2024-02-14T09:15:42;11.90;;;5.18;;
23676;SDS011;31493;49.058;12.190;2024-02-14T09:18:11;9.32;;;5.13;;
23676;SDS011;31493;49.058;12.190;2024-02-14T09:20:38;10.02;;;5.57;;
23676;SDS011;31493;49.058;12.190;2024-02-14T09:23:05;7.47;;;4.50;;
23676;SDS011;31493;49.058;12.190;2024-02-14T09:25:32;10.25;;;5.53;;
23676;SDS011;31493;49.058;12.190;2024-02-14T09:27:59;7.75;;;5.25;;
23676;SDS011;31493;49.058;12.190;2024-02-14T09:30:26;9.85;;;5.43;;
23676;SDS011;31493;49.058;12.190;2024-02-14T09:32:53;8.20;;;5.45;;
23676;SDS011;31493;49.058;12.190;2024-02-14T09:35:21;9.43;;;5.55;;
23676;SDS011;31493;49.058;12.190;2024-02-14T09:37:49;7.72;;;5.05;;
23676;SDS011;31493;49.058;12.190;2024-02-14T09:40:16;13.23;;;5.93;;
23676;SDS011;31493;49.058;12.190;2024-02-14T09:42:44;9.10;;;5.70;;
23676;SDS011;31493;49.058;12.190;2024-02-14T09:45:12;10.20;;;5.82;;
23676;SDS011;31493;49.058;12.190;2024-02-14T09:47:40;8.27;;;5.53;;
23676;SDS011;31493;49.058;12.190;2024-02-14T09:50:08;8.60;;;6.00;;
23676;SDS011;31493;49.058;12.190;2024-02-14T09:55:06;8.63;;;5.18;;
23676;SDS011;31493;49.058;12.190;2024-02-14T09:57:36;8.18;;;5.35;;
23676;SDS011;31493;49.058;12.190;2024-02-14T10:00:09;12.60;;;4.75;;
23676;SDS011;31493;49.058;12.190;2024-02-14T10:02:36;9.88;;;5.65;;
23676;SDS011;31493;49.058;12.190;2024-02-14T10:05:04;8.93;;;5.60;;
23676;SDS011;31493;49.058;12.190;2024-02-14T10:07:40;8.75;;;5.82;;
23676;SDS011;31493;49.058;12.190;2024-02-14T10:10:08;9.70;;;5.43;;
23676;SDS011;31493;49.058;12.190;2024-02-14T10:12:35;9.48;;;5.85;;
23676;SDS011;31493;49.058;12.190;2024-02-14T10:15:04;8.32;;;5.72;;
23676;SDS011;31493;49.058;12.190;2024-02-14T10:17:32;9.70;;;6.17;;
23676;SDS011;31493;49.058;12.190;2024-02-14T10:20:00;9.20;;;5.85;;
23676;SDS011;31493;49.058;12.190;2024-02-14T10:22:33;10.60;;;5.68;;
23676;SDS011;31493;49.058;12.190;2024-02-14T10:25:02;10.23;;;5.80;;
23676;SDS011;31493;49.058;12.190;2024-02-14T10:27:35;8.68;;;5.60;;
23676;SDS011;31493;49.058;12.190;2024-02-14T10:30:04;7.97;;;5.13;;
23676;SDS011;31493;49.058;12.190;2024-02-14T10:32:34;9.18;;;5.60;;
23676;SDS011;31493;49.058;12.190;2024-02-14T10:35:03;8.98;;;5.78;;
23676;SDS011;31493;49.058;12.190;2024-02-14T10:37:34;9.75;;;6.05;;
23676;SDS011;31493;49.058;12.190;2024-02-14T10:40:04;10.83;;;5.87;;
23676;SDS011;31493;49.058;12.190;2024-02-14T10:42:31;10.68;;;6.10;;
23676;SDS011;31493;49.058;12.190;2024-02-14T10:44:59;9.27;;;5.13;;
23676;SDS011;31493;49.058;12.190;2024-02-14T10:47:29;11.60;;;6.00;;
23676;SDS011;31493;49.058;12.190;2024-02-14T10:49:58;8.35;;;5.72;;
23676;SDS011;31493;49.058;12.190;2024-02-14T10:52:28;10.32;;;5.47;;
23676;SDS011;31493;49.058;12.190;2024-02-14T10:54:59;11.98;;;6.70;;
23676;SDS011;31493;49.058;12.190;2024-02-14T10:57:29;10.88;;;6.00;;
23676;SDS011;31493;49.058;12.190;2024-02-14T10:59:58;13.52;;;6.22;;
23676;SDS011;31493;49.058;12.190;2024-02-14T11:02:37;8.10;;;5.15;;
23676;SDS011;31493;49.058;12.190;2024-02-14T11:07:32;8.70;;;5.38;;
23676;SDS011;31493;49.058;12.190;2024-02-14T11:10:00;8.95;;;5.82;;
23676;SDS011;31493;49.058;12.190;2024-02-14T11:12:32;13.40;;;6.33;;
23676;SDS011;31493;49.058;12.190;2024-02-14T11:15:00;12.52;;;5.45;;
23676;SDS011;31493;49.058;12.190;2024-02-14T11:17:31;10.85;;;5.90;;
23676;SDS011;31493;49.058;12.190;2024-02-14T11:20:00;12.23;;;6.18;;
23676;SDS011;31493;49.058;12.190;2024-02-14T11:22:39;8.90;;;6.15;;
23676;SDS011;31493;49.058;12.190;2024-02-14T11:25:27;12.57;;;6.00;;
23676;SDS011;31493;49.058;12.190;2024-02-14T11:27:57;15.48;;;5.78;;
23676;SDS011;31493;49.058;12.190;2024-02-14T11:30:30;10.10;;;5.82;;
23676;SDS011;31493;49.058;12.190;2024-02-14T11:33:09;11.80;;;6.07;;
23676;SDS011;31493;49.058;12.190;2024-02-14T11:35:41;10.13;;;6.35;;
23676;SDS011;31493;49.058;12.190;2024-02-14T11:38:08;9.98;;;6.70;;
23676;SDS011;31493;49.058;12.190;2024-02-14T11:40:35;9.20;;;6.95;;
23676;SDS011;31493;49.058;12.190;2024-02-14T11:43:04;10.23;;;6.35;;
23676;SDS011;31493;49.058;12.190;2024-02-14T11:45:31;11.65;;;6.60;;
23676;SDS011;31493;49.058;12.190;2024-02-14T11:47:58;12.68;;;6.97;;
23676;SDS011;31493;49.058;12.190;2024-02-14T11:50:25;10.55;;;6.60;;
23676;SDS011;31493;49.058;12.190;2024-02-14T11:52:53;9.10;;;6.57;;
23676;SDS011;31493;49.058;12.190;2024-02-14T11:55:26;12.25;;;6.15;;
23676;SDS011;31493;49.058;12.190;2024-02-14T11:57:54;10.55;;;7.35;;
23676;SDS011;31493;49.058;12.190;2024-02-14T12:00:22;10.30;;;7.00;;
23676;SDS011;31493;49.058;12.190;2024-02-14T12:02:49;10.93;;;7.65;;
23676;SDS011;31493;49.058;12.190;2024-02-14T12:05:17;14.83;;;7.17;;
23676;SDS011;31493;49.058;12.190;2024-02-14T12:07:44;10.90;;;7.00;;
23676;SDS011;31493;49.058;12.190;2024-02-14T12:10:13;12.68;;;6.82;;
23676;SDS011;31493;49.058;12.190;2024-02-14T12:12:44;8.30;;;6.53;;
23676;SDS011;31493;49.058;12.190;2024-02-14T12:15:12;13.05;;;6.93;;
23676;SDS011;31493;49.058;12.190;2024-02-14T12:17:41;10.80;;;6.53;;
23676;SDS011;31493;49.058;12.190;2024-02-14T12:20:09;14.93;;;7.55;;
23676;SDS011;31493;49.058;12.190;2024-02-14T12:22:38;11.23;;;6.82;;
23676;SDS011;31493;49.058;12.190;2024-02-14T12:25:06;13.77;;;6.65;;
23676;SDS011;31493;49.058;12.190;2024-02-14T12:27:38;11.32;;;6.55;;
23676;SDS011;31493;49.058;12.190;2024-02-14T12:30:06;11.25;;;6.45;;
23676;SDS011;31493;49.058;12.190;2024-02-14T12:32:33;11.63;;;6.13;;
23676;SDS011;31493;49.058;12.190;2024-02-14T12:35:00;10.30;;;6.47;;
23676;SDS011;31493;49.058;12.190;2024-02-14T12:37:28;10.13;;;6.15;;
23676;SDS011;31493;49.058;12.190;2024-02-14T12:39:55;11.33;;;5.93;;
23676;SDS011;31493;49.058;12.190;2024-02-14T12:42:22;7.55;;;4.70;;
23676;SDS011;31493;49.058;12.190;2024-02-14T12:44:54;9.80;;;5.97;;
23676;SDS011;31493;49.058;12.190;2024-02-14T12:47:21;13.98;;;7.00;;
23676;SDS011;31493;49.058;12.190;2024-02-14T12:49:49;10.27;;;6.55;;
23676;SDS011;31493;49.058;12.190;2024-02-14T12:52:16;11.95;;;7.75;;
23676;SDS011;31493;49.058;12.190;2024-02-14T12:54:43;8.60;;;6.40;;
23676;SDS011;31493;49.058;12.190;2024-02-14T12:57:10;11.45;;;7.20;;
23676;SDS011;31493;49.058;12.190;2024-02-14T12:59:38;9.68;;;6.63;;
23676;SDS011;31493;49.058;12.190;2024-02-14T13:02:06;10.20;;;6.28;;
23676;SDS011;31493;49.058;12.190;2024-02-14T13:04:33;8.50;;;6.25;;
23676;SDS011;31493;49.058;12.190;2024-02-14T13:07:00;9.65;;;6.60;;
23676;SDS011;31493;49.058;12.190;2024-02-14T13:09:27;13.00;;;5.97;;
23676;SDS011;31493;49.058;12.190;2024-02-14T13:11:54;9.57;;;6.10;;
23676;SDS011;31493;49.058;12.190;2024-02-14T13:14:21;10.70;;;5.72;;
23676;SDS011;31493;49.058;12.190;2024-02-14T13:16:49;7.28;;;4.80;;
23676;SDS011;31493;49.058;12.190;2024-02-14T13:19:17;9.07;;;5.32;;
23676;SDS011;31493;49.058;12.190;2024-02-14T13:21:45;8.70;;;4.95;;
23676;SDS011;31493;49.058;12.190;2024-02-14T13:24:13;10.52;;;6.10;;
23676;SDS011;31493;49.058;12.190;2024-02-14T13:26:40;9.88;;;5.03;;
23676;SDS011;31493;49.058;12.190;2024-02-14T13:29:07;9.80;;;5.20;;
23676;SDS011;31493;49.058;12.190;2024-02-14T13:31:34;9.32;;;5.30;;
23676;SDS011;31493;49.058;12.190;2024-02-14T13:34:02;8.27;;;5.60;;
23676;SDS011;31493;49.058;12.190;2024-02-14T13:36:31;8.30;;;5.35;;
23676;SDS011;31493;49.058;12.190;2024-02-14T13:38:58;10.60;;;5.07;;
23676;SDS011;31493;49.058;12.190;2024-02-14T13:41:25;10.10;;;5.10;;
23676;SDS011;31493;49.058;12.190;2024-02-14T13:43:52;9.27;;;5.43;;
23676;SDS011;31493;49.058;12.190;2024-02-14T13:46:20;8.48;;;5.28;;
23676;SDS011;31493;49.058;12.190;2024-02-14T13:48:47;7.82;;;4.95;;
23676;SDS011;31493;49.058;12.190;2024-02-14T13:51:14;7.35;;;4.93;;
23676;SDS011;31493;49.058;12.190;2024-02-14T13:53:42;8.27;;;5.25;;
23676;SDS011;31493;49.058;12.190;2024-02-14T13:56:09;9.05;;;5.13;;
23676;SDS011;31493;49.058;12.190;2024-02-14T13:58:37;8.02;;;5.32;;
23676;SDS011;31493;49.058;12.190;2024-02-14T14:01:05;12.63;;;5.82;;
23676;SDS011;31493;49.058;12.190;2024-02-14T14:03:32;9.70;;;5.50;;
23676;SDS011;31493;49.058;12.190;2024-02-14T14:06:02;10.82;;;5.88;;
23676;SDS011;31493;49.058;12.190;2024-02-14T14:08:30;10.70;;;5.57;;
23676;SDS011;31493;49.058;12.190;2024-02-14T14:10:59;8.60;;;5.03;;
23676;SDS011;31493;49.058;12.190;2024-02-14T14:13:26;11.45;;;5.63;;
23676;SDS011;31493;49.058;12.190;2024-02-14T14:15:56;7.43;;;5.15;;
23676;SDS011;31493;49.058;12.190;2024-02-14T14:18:23;11.18;;;5.53;;
23676;SDS011;31493;49.058;12.190;2024-02-14T14:20:50;7.50;;;4.68;;
23676;SDS011;31493;49.058;12.190;2024-02-14T14:23:17;7.32;;;5.45;;
23676;SDS011;31493;49.058;12.190;2024-02-14T14:25:45;9.32;;;5.15;;
23676;SDS011;31493;49.058;12.190;2024-02-14T14:28:13;7.38;;;4.72;;
23676;SDS011;31493;49.058;12.190;2024-02-14T14:30:41;9.48;;;4.80;;
23676;SDS011;31493;49.058;12.190;2024-02-14T14:33:07;7.82;;;5.03;;
23676;SDS011;31493;49.058;12.190;2024-02-14T14:35:34;6.53;;;4.88;;
23676;SDS011;31493;49.058;12.190;2024-02-14T14:38:01;7.68;;;4.65;;